Time;durP1;ratioP1;P1;durP2;ratioP2;P2;SDS_P1;SDS_P2;PMS_P1;PMS_P2;Temp;Humidity;BMP_temperature;BMP_pressure;BME280_temperature;BME280_humidity;BME280_pressure;Samples;Min_cycle;Max_cycle;Signal;HPM_P1;HPM_P2
2023/09/14 00:01:09;;;;;;;0.00;0.00;;;9.90;99.90;;;;;;5063374;28;20040;-72
2023/09/14 00:03:35;;;;;;;0.05;0.00;;;9.80;99.90;;;;;;5047569;28;20040;-71
2023/09/14 00:06:01;;;;;;;0.00;0.00;;;9.80;99.90;;;;;;5061898;28;20033;-71
2023/09/14 00:08:30;;;;;;;1.30;0.00;;;9.80;99.90;;;;;;5060279;28;20515;-71
2023/09/14 00:10:58;;;;;;;0.47;0.10;;;9.80;99.90;;;;;;5080194;28;20032;-71
2023/09/14 00:13:24;;;;;;;0.00;0.00;;;9.80;99.90;;;;;;5061393;28;20087;-71
2023/09/14 00:15:51;;;;;;;0.08;0.08;;;9.80;99.90;;;;;;5062510;28;20116;-72
2023/09/14 00:18:17;;;;;;;0.20;0.00;;;9.70;99.90;;;;;;5047545;28;20567;-72
2023/09/14 00:20:42;;;;;;;0.32;0.00;;;9.70;99.90;;;;;;5050818;28;20037;-71
2023/09/14 00:23:08;;;;;;;0.00;0.00;;;9.70;99.90;;;;;;5065508;28;20047;-72
2023/09/14 00:25:34;;;;;;;0.10;0.08;;;9.70;99.90;;;;;;5059516;28;20041;-72
2023/09/14 00:27:59;;;;;;;0.47;0.15;;;9.70;99.90;;;;;;5063144;28;20058;-73
2023/09/14 00:30:25;;;;;;;0.10;0.00;;;9.60;99.90;;;;;;5063211;28;20108;-72
2023/09/14 00:32:52;;;;;;;0.00;0.00;;;9.60;99.90;;;;;;5044504;28;20033;-72
2023/09/14 00:35:19;;;;;;;0.00;0.00;;;9.60;99.90;;;;;;5079968;28;20044;-72
2023/09/14 00:37:45;;;;;;;0.00;0.00;;;9.60;99.90;;;;;;5058905;28;20032;-72
2023/09/14 00:40:13;;;;;;;0.10;0.00;;;9.60;99.90;;;;;;5043650;28;20045;-72
2023/09/14 00:42:43;;;;;;;0.00;0.00;;;9.60;99.90;;;;;;5090782;28;20040;-72
2023/09/14 00:45:12;;;;;;;0.10;0.00;;;9.60;99.90;;;;;;5063514;28;20045;-72
2023/09/14 00:47:39;;;;;;;0.00;0.00;;;9.60;99.90;;;;;;5061570;28;20370;-73
2023/09/14 00:50:06;;;;;;;0.00;0.00;;;9.60;99.90;;;;;;5072138;28;20071;-72
2023/09/14 00:52:34;;;;;;;0.00;0.00;;;9.60;99.90;;;;;;5059598;28;20477;-72
2023/09/14 00:55:00;;;;;;;0.77;0.08;;;9.60;99.90;;;;;;5058334;28;20045;-73
2023/09/14 00:57:26;;;;;;;0.00;0.00;;;9.50;99.90;;;;;;5062545;28;20493;-73
2023/09/14 00:59:53;;;;;;;0.00;0.00;;;9.60;99.90;;;;;;5044629;28;20119;-71
2023/09/14 01:02:19;;;;;;;0.90;0.10;;;9.50;99.90;;;;;;5061794;28;20036;-71
2023/09/14 01:04:45;;;;;;;0.00;0.00;;;9.60;99.90;;;;;;5067618;28;20047;-71
2023/09/14 01:07:10;;;;;;;0.00;0.00;;;9.50;99.90;;;;;;5063556;28;20040;-73
2023/09/14 01:09:36;;;;;;;0.38;0.10;;;9.50;99.90;;;;;;5061587;28;20033;-72
2023/09/14 01:12:03;;;;;;;0.13;0.00;;;9.50;99.90;;;;;;5058173;28;20162;-71
2023/09/14 01:14:39;;;;;;;0.10;0.10;;;9.50;99.90;;;;;;5093715;28;20112;-72
2023/09/14 01:17:20;;;;;;;0.30;0.10;;;9.50;99.90;;;;;;5094425;28;20082;-72
2023/09/14 01:20:01;;;;;;;0.38;0.10;;;9.50;99.90;;;;;;5059411;28;20079;-72
2023/09/14 01:22:46;;;;;;;0.00;0.00;;;9.50;99.90;;;;;;5098311;27;20052;-72
2023/09/14 01:25:30;;;;;;;;;;;9.40;99.90;;;;;;5044175;28;20434;-73
2023/09/14 01:28:07;;;;;;;0.20;0.00;;;9.40;99.90;;;;;;5090449;28;20467;-71
2023/09/14 01:30:32;;;;;;;0.00;0.00;;;9.40;99.90;;;;;;5094170;28;20043;-71
2023/09/14 01:32:58;;;;;;;2.40;0.22;;;9.40;99.90;;;;;;5055889;28;20044;-72
2023/09/14 01:35:30;;;;;;;0.00;0.00;;;9.40;99.90;;;;;;5049465;28;20181;-71
2023/09/14 01:37:57;;;;;;;0.10;0.00;;;9.30;99.90;;;;;;5058727;28;20044;-71
2023/09/14 01:40:24;;;;;;;0.10;0.10;;;9.30;99.90;;;;;;5062003;28;20048;-72
2023/09/14 01:42:50;;;;;;;0.55;0.20;;;9.30;99.90;;;;;;5064124;28;20437;-71
2023/09/14 01:45:17;;;;;;;0.00;0.00;;;9.30;99.90;;;;;;5042406;28;20049;-71
2023/09/14 01:47:43;;;;;;;0.00;0.00;;;9.30;99.90;;;;;;5043491;28;20041;-72
2023/09/14 01:50:09;;;;;;;0.00;0.00;;;9.20;99.90;;;;;;5041112;28;20037;-71
2023/09/14 01:52:36;;;;;;;0.20;0.08;;;9.20;99.90;;;;;;5045781;28;20524;-71
2023/09/14 01:55:01;;;;;;;0.00;0.00;;;9.20;99.90;;;;;;5066719;28;20122;-71
2023/09/14 01:57:27;;;;;;;0.00;0.00;;;9.20;99.90;;;;;;5061077;28;20041;-71
2023/09/14 01:59:53;;;;;;;0.00;0.00;;;9.20;99.90;;;;;;5056181;28;20057;-72
2023/09/14 02:02:18;;;;;;;0.17;0.10;;;9.10;99.90;;;;;;5059890;28;20029;-72
2023/09/14 02:04:47;;;;;;;0.10;0.10;;;9.10;99.90;;;;;;5061157;28;20115;-72
2023/09/14 02:07:12;;;;;;;0.10;0.05;;;9.10;99.90;;;;;;5056780;28;20037;-72
2023/09/14 02:09:38;;;;;;;0.05;0.00;;;9.00;99.90;;;;;;5059438;28;20408;-71
2023/09/14 02:12:04;;;;;;;0.20;0.10;;;9.00;99.90;;;;;;5074674;28;20068;-71
2023/09/14 02:14:30;;;;;;;0.00;0.00;;;9.00;99.90;;;;;;5063248;28;20045;-71
2023/09/14 02:16:55;;;;;;;0.15;0.00;;;9.00;99.90;;;;;;5060504;28;20071;-71
2023/09/14 02:19:21;;;;;;;0.20;0.15;;;8.90;99.90;;;;;;5057879;28;20094;-71
2023/09/14 02:21:47;;;;;;;0.00;0.00;;;9.00;99.90;;;;;;5059248;28;20080;-71
2023/09/14 02:24:13;;;;;;;0.10;0.00;;;9.00;99.90;;;;;;5041485;28;20045;-72
2023/09/14 02:26:38;;;;;;;0.00;0.00;;;8.90;99.90;;;;;;5060005;28;20041;-72
2023/09/14 02:29:04;;;;;;;0.00;0.00;;;8.90;99.90;;;;;;5056645;28;20048;-72
2023/09/14 02:31:31;;;;;;;0.20;0.05;;;8.80;99.90;;;;;;5074158;28;20033;-72
2023/09/14 02:33:57;;;;;;;0.40;0.00;;;8.90;99.90;;;;;;5058357;28;20174;-72
2023/09/14 02:36:25;;;;;;;0.00;0.00;;;8.80;99.90;;;;;;5063416;28;20096;-72
2023/09/14 02:38:50;;;;;;;0.03;0.03;;;8.80;99.90;;;;;;5059429;28;20044;-73
2023/09/14 02:41:17;;;;;;;0.00;0.00;;;8.80;99.90;;;;;;5062945;28;20174;-72
2023/09/14 02:43:43;;;;;;;0.30;0.00;;;8.70;99.90;;;;;;5060460;28;20040;-72
2023/09/14 02:46:10;;;;;;;0.30;0.15;;;8.70;99.90;;;;;;5043950;28;20044;-72
2023/09/14 02:48:36;;;;;;;0.00;0.00;;;8.70;99.90;;;;;;5060790;28;20044;-72
2023/09/14 02:51:02;;;;;;;0.25;0.20;;;8.70;99.90;;;;;;5054606;28;20041;-72
2023/09/14 02:53:28;;;;;;;0.15;0.00;;;8.70;99.90;;;;;;5061577;28;20471;-72
2023/09/14 02:55:53;;;;;;;0.10;0.00;;;8.70;99.90;;;;;;5060271;28;20041;-72
2023/09/14 02:58:19;;;;;;;0.10;0.03;;;8.60;99.90;;;;;;5038648;28;20245;-72
2023/09/14 03:00:45;;;;;;;0.00;0.00;;;8.60;99.90;;;;;;5057511;28;20562;-72
2023/09/14 03:03:10;;;;;;;0.10;0.00;;;8.60;99.90;;;;;;5060483;28;20063;-72
2023/09/14 03:05:36;;;;;;;0.00;0.00;;;8.60;99.90;;;;;;5060952;28;20110;-72
2023/09/14 03:08:02;;;;;;;0.00;0.00;;;8.60;99.90;;;;;;5044327;28;20396;-72
2023/09/14 03:10:27;;;;;;;0.28;0.10;;;8.60;99.90;;;;;;5094978;28;20527;-72
2023/09/14 03:12:53;;;;;;;1.75;0.20;;;8.50;99.90;;;;;;5061786;28;20044;-72
2023/09/14 03:15:19;;;;;;;0.52;0.20;;;8.50;99.90;;;;;;5058763;28;20422;-72
2023/09/14 03:17:44;;;;;;;0.00;0.00;;;8.50;99.90;;;;;;5057322;28;20044;-72
2023/09/14 03:20:10;;;;;;;0.20;0.20;;;8.50;99.90;;;;;;5057709;28;20067;-72
2023/09/14 03:22:36;;;;;;;0.60;0.10;;;8.50;99.90;;;;;;5065062;28;20072;-72
2023/09/14 03:25:02;;;;;;;0.00;0.00;;;8.50;99.90;;;;;;5058139;28;20044;-71
2023/09/14 03:27:28;;;;;;;0.00;0.00;;;8.50;99.90;;;;;;5062697;28;20497;-72
2023/09/14 03:29:54;;;;;;;0.00;0.00;;;8.50;99.90;;;;;;5056087;28;20155;-72
2023/09/14 03:32:19;;;;;;;0.00;0.00;;;8.40;99.90;;;;;;5059225;28;20040;-72
2023/09/14 03:34:45;;;;;;;0.00;0.00;;;8.40;99.90;;;;;;5061885;28;20032;-71
2023/09/14 03:37:11;;;;;;;0.75;0.13;;;8.40;99.90;;;;;;5053856;28;20572;-72
2023/09/14 03:39:36;;;;;;;0.00;0.00;;;8.30;99.90;;;;;;5058122;28;20049;-72
2023/09/14 03:42:02;;;;;;;0.00;0.00;;;8.30;99.90;;;;;;5059454;28;20046;-72
2023/09/14 03:44:28;;;;;;;1.75;0.00;;;8.30;99.90;;;;;;5054968;28;20045;-72
2023/09/14 03:46:54;;;;;;;0.10;0.10;;;8.30;99.90;;;;;;5056416;28;20040;-72
2023/09/14 03:49:19;;;;;;;0.00;0.00;;;8.30;99.90;;;;;;5056620;28;20139;-72
2023/09/14 03:51:45;;;;;;;0.30;0.10;;;8.30;99.90;;;;;;5056415;28;20040;-72
2023/09/14 03:54:11;;;;;;;0.05;0.00;;;8.30;99.90;;;;;;5039314;28;20095;-72
2023/09/14 03:56:37;;;;;;;0.00;0.00;;;8.30;99.90;;;;;;5074312;28;20136;-72
2023/09/14 03:59:03;;;;;;;0.20;0.10;;;8.30;99.90;;;;;;5057509;28;20490;-72
2023/09/14 04:01:29;;;;;;;0.00;0.00;;;8.20;99.90;;;;;;5053668;28;20077;-72
2023/09/14 04:03:55;;;;;;;0.00;0.00;;;8.20;99.90;;;;;;5058086;28;20055;-72
2023/09/14 04:06:21;;;;;;;0.00;0.00;;;8.20;99.90;;;;;;5055736;28;20041;-72
2023/09/14 04:08:46;;;;;;;0.00;0.00;;;8.20;99.90;;;;;;5045639;28;20218;-72
2023/09/14 04:11:12;;;;;;;0.08;0.00;;;8.20;99.90;;;;;;5057533;28;20033;-71
2023/09/14 04:13:38;;;;;;;0.00;0.00;;;8.20;99.90;;;;;;5054161;28;20033;-71
2023/09/14 04:16:05;;;;;;;0.00;0.00;;;8.20;99.90;;;;;;5064624;28;20472;-71
2023/09/14 04:18:34;;;;;;;0.00;0.00;;;8.10;99.90;;;;;;5053288;28;20051;-72
2023/09/14 04:21:02;;;;;;;0.00;0.00;;;8.10;99.90;;;;;;5059781;28;20316;-72
2023/09/14 04:23:28;;;;;;;0.00;0.00;;;8.10;99.90;;;;;;5061363;28;20048;-71
2023/09/14 04:25:54;;;;;;;0.00;0.00;;;8.10;99.90;;;;;;5063154;28;20457;-71
2023/09/14 04:28:21;;;;;;;0.20;0.10;;;8.00;99.90;;;;;;5061354;28;20033;-71
2023/09/14 04:30:52;;;;;;;0.60;0.00;;;8.10;99.90;;;;;;5062082;28;20060;-72
2023/09/14 04:33:18;;;;;;;0.00;0.00;;;8.10;99.90;;;;;;5064991;28;20063;-71
2023/09/14 04:35:44;;;;;;;0.00;0.00;;;8.00;99.90;;;;;;5090726;28;20604;-72
2023/09/14 04:38:10;;;;;;;0.00;0.00;;;8.00;99.90;;;;;;5060883;28;20115;-71
2023/09/14 04:40:41;;;;;;;0.20;0.15;;;8.00;99.90;;;;;;5062878;28;20063;-71
2023/09/14 04:43:08;;;;;;;0.35;0.17;;;8.00;99.90;;;;;;5062050;28;20045;-72
2023/09/14 04:45:34;;;;;;;0.30;0.20;;;8.00;99.90;;;;;;5061962;28;20136;-72
2023/09/14 04:48:00;;;;;;;0.08;0.00;;;8.00;99.90;;;;;;5080860;28;20119;-72
2023/09/14 04:50:27;;;;;;;0.00;0.00;;;8.00;99.90;;;;;;5044522;28;20538;-72
2023/09/14 04:52:52;;;;;;;0.00;0.00;;;8.00;99.90;;;;;;5059470;28;20049;-72
2023/09/14 04:55:18;;;;;;;0.20;0.00;;;8.00;99.90;;;;;;5056280;28;20059;-72
2023/09/14 04:57:44;;;;;;;0.25;0.20;;;8.00;99.90;;;;;;5058493;28;20055;-72
2023/09/14 05:00:11;;;;;;;0.28;0.05;;;8.00;99.90;;;;;;5063123;28;20090;-72
2023/09/14 05:02:38;;;;;;;0.52;0.00;;;8.00;99.90;;;;;;5049090;28;20036;-72
2023/09/14 05:05:06;;;;;;;0.05;0.00;;;8.00;99.90;;;;;;5059226;28;20037;-72
2023/09/14 05:07:32;;;;;;;0.20;0.10;;;8.00;99.90;;;;;;5062419;28;20037;-72
2023/09/14 05:09:58;;;;;;;0.10;0.10;;;7.90;99.90;;;;;;5057469;28;20454;-72
2023/09/14 05:12:24;;;;;;;0.13;0.10;;;8.00;99.90;;;;;;5046453;28;20082;-72
2023/09/14 05:14:49;;;;;;;0.08;0.00;;;8.00;99.90;;;;;;5058592;28;20128;-72
2023/09/14 05:17:15;;;;;;;0.00;0.00;;;8.00;99.90;;;;;;5063096;28;20047;-72
2023/09/14 05:19:45;;;;;;;0.35;0.17;;;8.00;99.90;;;;;;5059937;28;20041;-72
2023/09/14 05:22:11;;;;;;;0.00;0.00;;;8.00;99.90;;;;;;5061435;28;20050;-72
2023/09/14 05:24:40;;;;;;;0.00;0.00;;;8.00;99.90;;;;;;5062428;28;20408;-72
2023/09/14 05:27:06;;;;;;;0.00;0.00;;;8.00;99.90;;;;;;5061249;28;20397;-72
2023/09/14 05:29:32;;;;;;;0.00;0.00;;;8.00;99.90;;;;;;5057630;28;20040;-72
2023/09/14 05:31:58;;;;;;;0.00;0.00;;;8.10;99.90;;;;;;5067424;28;20037;-72
2023/09/14 05:34:24;;;;;;;0.10;0.00;;;8.10;99.90;;;;;;5056836;28;20036;-72
2023/09/14 05:36:50;;;;;;;0.10;0.00;;;8.20;99.90;;;;;;5060316;28;20110;-72
2023/09/14 05:39:16;;;;;;;0.00;0.00;;;8.20;99.90;;;;;;5041214;28;20423;-72
2023/09/14 05:41:43;;;;;;;0.00;0.00;;;8.30;99.90;;;;;;5075666;28;20029;-72
2023/09/14 05:44:09;;;;;;;0.00;0.00;;;8.30;99.90;;;;;;5051735;28;20041;-72
2023/09/14 05:46:39;;;;;;;0.00;0.00;;;8.30;99.90;;;;;;5057176;28;20392;-72
2023/09/14 05:49:08;;;;;;;0.13;0.10;;;8.40;99.90;;;;;;5042711;28;20048;-72
2023/09/14 05:51:34;;;;;;;0.40;0.00;;;8.50;99.90;;;;;;5062583;28;20365;-72
2023/09/14 05:53:59;;;;;;;0.38;0.17;;;8.50;99.90;;;;;;5057239;28;20076;-72
2023/09/14 05:56:25;;;;;;;0.00;0.00;;;8.60;99.90;;;;;;5096245;28;20054;-72
2023/09/14 05:58:51;;;;;;;0.10;0.00;;;8.60;99.90;;;;;;5054695;28;20045;-72
2023/09/14 06:01:16;;;;;;;0.08;0.00;;;8.70;99.90;;;;;;5060545;28;20508;-72
2023/09/14 06:03:44;;;;;;;0.00;0.00;;;8.70;99.90;;;;;;5059869;28;20038;-72
2023/09/14 06:06:10;;;;;;;0.30;0.30;;;8.80;99.90;;;;;;5093894;28;20112;-73
2023/09/14 06:08:37;;;;;;;0.00;0.00;;;8.90;99.90;;;;;;5043052;28;20611;-73
2023/09/14 06:11:03;;;;;;;0.00;0.00;;;8.90;99.90;;;;;;5063532;28;20032;-73
2023/09/14 06:13:29;;;;;;;0.00;0.00;;;9.00;99.90;;;;;;5046341;28;20373;-73
2023/09/14 06:15:55;;;;;;;0.00;0.00;;;9.20;99.90;;;;;;5057290;28;20041;-71
2023/09/14 06:18:21;;;;;;;0.05;0.03;;;9.30;99.90;;;;;;5062388;28;20068;-73
2023/09/14 06:20:47;;;;;;;0.38;0.10;;;9.40;99.90;;;;;;5055712;28;20083;-72
2023/09/14 06:23:13;;;;;;;0.10;0.00;;;9.50;99.90;;;;;;5100053;27;20051;-73
2023/09/14 06:25:38;;;;;;;0.00;0.00;;;9.60;99.90;;;;;;5055130;28;20041;-72
2023/09/14 06:28:04;;;;;;;0.45;0.03;;;9.80;99.90;;;;;;5042684;28;20106;-73
2023/09/14 06:30:30;;;;;;;0.00;0.00;;;9.90;99.90;;;;;;5039476;28;20481;-73
2023/09/14 06:32:56;;;;;;;0.35;0.17;;;10.10;99.90;;;;;;5059773;28;20062;-72
2023/09/14 06:35:21;;;;;;;1.27;0.05;;;10.20;99.90;;;;;;5057525;28;20035;-72
2023/09/14 06:37:47;;;;;;;1.52;0.13;;;10.30;99.90;;;;;;5065536;28;20044;-72
2023/09/14 06:40:14;;;;;;;0.10;0.00;;;10.50;99.90;;;;;;5053588;28;20064;-73
2023/09/14 06:42:41;;;;;;;0.08;0.00;;;10.70;99.90;;;;;;5062435;28;20048;-72
2023/09/14 06:45:07;;;;;;;0.95;0.47;;;10.80;99.90;;;;;;5057284;28;20479;-73
2023/09/14 06:47:33;;;;;;;0.00;0.00;;;11.00;99.90;;;;;;5072309;28;20036;-72
2023/09/14 06:49:59;;;;;;;0.28;0.10;;;11.10;99.90;;;;;;5057356;28;20258;-73
2023/09/14 06:52:25;;;;;;;0.45;0.10;;;11.20;99.90;;;;;;5040513;28;20031;-73
2023/09/14 06:54:51;;;;;;;0.00;0.00;;;11.40;99.90;;;;;;5056274;28;20639;-72
2023/09/14 06:57:16;;;;;;;0.10;0.05;;;11.50;99.90;;;;;;5037071;28;20885;-72
2023/09/14 06:59:42;;;;;;;0.05;0.00;;;11.70;99.90;;;;;;5037650;28;20072;-72
2023/09/14 07:02:08;;;;;;;0.00;0.00;;;11.80;99.90;;;;;;5054386;28;20412;-72
2023/09/14 07:04:34;;;;;;;0.52;0.00;;;11.90;99.90;;;;;;5063632;28;20373;-72
2023/09/14 07:07:00;;;;;;;0.90;0.30;;;12.00;99.90;;;;;;5049603;28;20101;-72
2023/09/14 07:09:26;;;;;;;0.00;0.00;;;12.30;99.90;;;;;;5058393;28;20044;-72
2023/09/14 07:11:52;;;;;;;1.00;0.30;;;12.40;99.90;;;;;;5058987;28;20038;-72
2023/09/14 07:14:18;;;;;;;0.98;0.25;;;12.50;99.90;;;;;;5059985;28;20418;-70
2023/09/14 07:16:43;;;;;;;0.50;0.20;;;12.70;99.90;;;;;;5087924;28;20037;-70
2023/09/14 07:19:09;;;;;;;0.20;0.10;;;12.80;99.90;;;;;;5054018;28;20101;-70
2023/09/14 07:21:37;;;;;;;0.10;0.00;;;13.00;99.90;;;;;;5054107;28;20347;-71
2023/09/14 07:24:07;;;;;;;0.75;0.10;;;13.20;99.90;;;;;;5053671;28;20037;-71
2023/09/14 07:26:38;;;;;;;0.30;0.20;;;13.30;99.90;;;;;;5086332;28;20442;-71
2023/09/14 07:29:04;;;;;;;0.20;0.10;;;13.50;99.90;;;;;;5040470;28;20075;-71
2023/09/14 07:31:30;;;;;;;0.20;0.00;;;13.70;99.90;;;;;;5054397;28;20036;-71
2023/09/14 07:33:56;;;;;;;1.55;0.45;;;13.80;99.90;;;;;;5052664;28;20103;-71
2023/09/14 07:36:21;;;;;;;0.25;0.10;;;14.10;99.90;;;;;;5055266;28;20044;-71
2023/09/14 07:38:47;;;;;;;0.15;0.03;;;14.30;99.90;;;;;;5090618;28;20078;-71
2023/09/14 07:41:13;;;;;;;0.43;0.10;;;14.50;99.90;;;;;;5055405;28;20508;-71
2023/09/14 07:43:39;;;;;;;0.22;0.08;;;14.60;99.90;;;;;;5056434;28;20044;-71
2023/09/14 07:46:05;;;;;;;0.20;0.13;;;14.90;99.90;;;;;;5056604;28;20048;-71
2023/09/14 07:48:31;;;;;;;0.35;0.15;;;15.10;99.90;;;;;;5040378;28;20040;-72
2023/09/14 07:50:56;;;;;;;0.22;0.10;;;15.50;99.90;;;;;;5091620;28;20049;-72
2023/09/14 07:53:22;;;;;;;0.10;0.00;;;15.60;99.90;;;;;;5054337;28;20024;-72
2023/09/14 07:55:52;;;;;;;0.70;0.43;;;15.80;99.90;;;;;;5059955;28;20476;-72
2023/09/14 07:58:20;;;;;;;1.42;0.30;;;16.00;99.90;;;;;;5087473;28;20048;-71
2023/09/14 08:00:46;;;;;;;0.00;0.00;;;16.20;99.90;;;;;;5092789;28;20041;-71
2023/09/14 08:03:14;;;;;;;0.10;0.00;;;16.30;99.90;;;;;;5061062;28;20052;-71
2023/09/14 08:05:40;;;;;;;0.30;0.10;;;16.50;99.90;;;;;;5097665;28;20048;-72
2023/09/14 08:08:06;;;;;;;0.20;0.10;;;16.90;99.90;;;;;;5056067;28;20033;-72
2023/09/14 08:10:32;;;;;;;0.20;0.10;;;17.10;99.90;;;;;;5058193;28;20048;-72
2023/09/14 08:12:59;;;;;;;0.38;0.30;;;17.30;99.90;;;;;;5060013;28;20051;-72
2023/09/14 08:15:25;;;;;;;0.00;0.00;;;17.70;99.90;;;;;;5059945;28;20208;-72
2023/09/14 08:17:51;;;;;;;0.00;0.00;;;18.70;99.90;;;;;;5056628;28;20504;-72
2023/09/14 08:20:17;;;;;;;0.38;0.03;;;19.70;99.90;;;;;;5056316;28;20084;-72
2023/09/14 08:22:44;;;;;;;0.00;0.00;;;20.60;99.90;;;;;;5058180;28;20033;-72
2023/09/14 08:25:10;;;;;;;0.28;0.17;;;21.40;99.90;;;;;;5057980;28;20105;-72
2023/09/14 08:27:40;;;;;;;0.47;0.10;;;22.00;99.90;;;;;;5043383;28;20445;-72
2023/09/14 08:30:11;;;;;;;0.00;0.00;;;22.70;99.90;;;;;;5062991;28;20120;-72
2023/09/14 08:32:37;;;;;;;0.32;0.20;;;23.10;99.90;;;;;;5063833;28;20041;-72
2023/09/14 08:35:24;;;;;;;0.22;0.10;;;23.20;99.90;;;;;;5058231;28;20044;-72
2023/09/14 08:37:52;;;;;;;0.57;0.10;;;23.50;99.90;;;;;;5091009;28;20048;-72
2023/09/14 08:40:18;;;;;;;0.90;0.40;;;23.90;99.90;;;;;;5058601;28;20472;-72
2023/09/14 08:42:51;;;;;;;0.25;0.15;;;24.10;99.90;;;;;;5066094;28;20051;-72
2023/09/14 08:45:38;;;;;;;0.93;0.10;;;24.50;99.90;;;;;;5094611;27;20110;-72
2023/09/14 08:48:05;;;;;;;2.90;0.22;;;24.90;94.70;;;;;;5096678;28;20286;-72
2023/09/14 08:50:32;;;;;;;0.98;0.10;;;25.00;99.90;;;;;;5063293;28;20469;-72
2023/09/14 08:52:59;;;;;;;0.10;0.10;;;25.10;97.20;;;;;;5065185;28;20048;-72
2023/09/14 08:55:29;;;;;;;0.20;0.10;;;25.10;99.90;;;;;;5058656;28;20146;-72
2023/09/14 08:57:56;;;;;;;0.30;0.10;;;25.10;99.90;;;;;;5064780;28;20072;-73
2023/09/14 09:00:26;;;;;;;0.70;0.15;;;25.10;99.90;;;;;;5062119;28;20068;-73
2023/09/14 09:02:53;;;;;;;0.10;0.00;;;25.40;99.90;;;;;;5060884;28;20124;-72
2023/09/14 09:05:20;;;;;;;2.92;0.10;;;25.60;97.80;;;;;;5055959;28;20041;-72
2023/09/14 09:07:48;;;;;;;0.08;0.03;;;25.70;95.20;;;;;;5061726;28;20032;-72
2023/09/14 09:10:21;;;;;;;1.13;0.10;;;26.00;99.90;;;;;;5087251;28;20049;-73
2023/09/14 09:12:49;;;;;;;0.52;0.08;;;26.00;99.30;;;;;;5041531;28;20041;-73
2023/09/14 09:15:15;;;;;;;0.80;0.30;;;26.10;94.10;;;;;;5059861;28;20036;-73
2023/09/14 09:17:44;;;;;;;0.30;0.10;;;26.30;96.50;;;;;;5062778;28;20082;-73
2023/09/14 09:20:16;;;;;;;0.20;0.10;;;26.50;98.30;;;;;;5056858;28;20041;-73
2023/09/14 09:22:45;;;;;;;0.63;0.10;;;26.40;94.20;;;;;;5059264;28;20036;-73
2023/09/14 09:25:12;;;;;;;0.20;0.10;;;26.40;94.50;;;;;;5059712;28;20119;-73
2023/09/14 09:27:39;;;;;;;0.30;0.00;;;26.20;84.20;;;;;;5057965;28;20053;-73
2023/09/14 09:30:06;;;;;;;0.65;0.10;;;26.30;85.90;;;;;;5055779;28;20040;-73
2023/09/14 09:32:32;;;;;;;0.13;0.10;;;26.40;93.60;;;;;;5090808;28;20117;-73
2023/09/14 09:35:19;;;;;;;0.00;0.00;;;26.50;84.00;;;;;;5056946;28;20360;-73
2023/09/14 09:37:46;;;;;;;3.08;0.70;;;26.70;77.60;;;;;;5061696;28;20040;-73
2023/09/14 09:40:14;;;;;;;0.00;0.00;;;26.70;77.70;;;;;;5055253;28;20075;-73
2023/09/14 09:42:40;;;;;;;1.13;0.15;;;26.50;72.90;;;;;;5058914;28;20076;-73
2023/09/14 09:45:08;;;;;;;0.30;0.00;;;26.40;82.10;;;;;;5060044;28;20102;-73
2023/09/14 09:47:35;;;;;;;1.65;0.10;;;26.40;81.30;;;;;;5038069;28;20074;-73
2023/09/14 09:50:07;;;;;;;0.85;0.10;;;26.30;79.10;;;;;;5060209;28;20045;-73
2023/09/14 09:52:34;;;;;;;0.55;0.10;;;26.40;81.70;;;;;;5056257;28;20468;-73
2023/09/14 09:55:00;;;;;;;0.25;0.00;;;26.40;82.60;;;;;;5059330;28;20040;-73
2023/09/14 09:57:30;;;;;;;0.00;0.00;;;26.40;69.00;;;;;;5060349;28;20096;-73
2023/09/14 09:59:57;;;;;;;0.10;0.00;;;26.40;77.70;;;;;;5058118;28;20080;-73
2023/09/14 10:02:33;;;;;;;0.55;0.00;;;26.40;72.40;;;;;;5057327;28;20116;-73
2023/09/14 10:04:59;;;;;;;0.00;0.00;;;26.20;69.30;;;;;;5061618;28;20029;-73
2023/09/14 10:07:25;;;;;;;0.00;0.00;;;26.30;70.60;;;;;;5047249;28;20123;-73
2023/09/14 10:09:53;;;;;;;0.05;0.00;;;26.50;67.60;;;;;;5065499;28;20140;-73
2023/09/14 10:12:24;;;;;;;0.38;0.00;;;26.50;69.50;;;;;;5094041;28;20037;-73
2023/09/14 10:14:54;;;;;;;0.50;0.13;;;26.40;69.50;;;;;;5095768;28;20040;-73
2023/09/14 10:17:25;;;;;;;0.35;0.10;;;26.30;70.70;;;;;;5059104;28;20037;-73
2023/09/14 10:19:51;;;;;;;0.00;0.00;;;26.30;70.60;;;;;;5045915;28;20084;-73
2023/09/14 10:22:19;;;;;;;0.32;0.10;;;26.50;69.70;;;;;;5060441;28;20393;-73
2023/09/14 10:24:46;;;;;;;0.15;0.00;;;26.80;70.00;;;;;;5069456;28;20033;-73
2023/09/14 10:27:15;;;;;;;0.17;0.00;;;26.80;70.90;;;;;;5065366;28;20050;-73
2023/09/14 10:29:42;;;;;;;0.10;0.00;;;26.80;78.60;;;;;;5067020;28;20484;-73
2023/09/14 10:32:11;;;;;;;0.15;0.00;;;26.80;69.50;;;;;;5080195;28;20122;-73
2023/09/14 10:34:41;;;;;;;0.00;0.00;;;26.50;75.00;;;;;;5061674;28;20124;-73
2023/09/14 10:37:10;;;;;;;0.17;0.05;;;25.70;65.50;;;;;;5060777;28;20455;-73
2023/09/14 10:39:37;;;;;;;0.50;0.22;;;25.20;68.60;;;;;;5051422;28;20386;-73
2023/09/14 10:42:04;;;;;;;0.30;0.00;;;25.40;71.20;;;;;;5062789;28;20467;-73
2023/09/14 10:44:31;;;;;;;0.20;0.00;;;25.50;64.80;;;;;;5046165;28;20084;-73
2023/09/14 10:47:01;;;;;;;0.00;0.00;;;25.80;69.50;;;;;;5097025;28;20049;-73
2023/09/14 10:49:33;;;;;;;0.13;0.00;;;26.20;69.40;;;;;;5096495;28;20084;-73
2023/09/14 10:52:00;;;;;;;0.17;0.00;;;25.80;65.60;;;;;;5051195;28;20090;-73
2023/09/14 10:54:27;;;;;;;0.00;0.00;;;25.20;71.60;;;;;;5054523;28;20124;-73
2023/09/14 10:57:01;;;;;;;0.75;0.00;;;24.90;71.60;;;;;;5042224;28;20428;-73
2023/09/14 10:59:47;;;;;;;0.00;0.00;;;25.10;68.40;;;;;;5061681;28;20139;-73
2023/09/14 11:02:39;;;;;;;0.20;0.00;;;25.50;69.20;;;;;;5063275;28;20052;-73
2023/09/14 11:05:26;;;;;;;0.80;0.10;;;25.90;66.80;;;;;;5063730;28;20100;-73
2023/09/14 11:07:59;;;;;;;1.35;0.00;;;26.40;69.20;;;;;;5050273;28;20146;-73
2023/09/14 11:10:27;;;;;;;1.50;0.10;;;26.90;72.30;;;;;;5097215;28;20036;-73
2023/09/14 11:13:18;;;;;;;0.10;0.00;;;27.20;76.00;;;;;;5042046;28;20090;-73
2023/09/14 11:15:49;;;;;;;0.65;0.10;;;27.30;64.70;;;;;;5064317;28;20108;-73
2023/09/14 11:18:18;;;;;;;0.38;0.10;;;26.70;73.60;;;;;;5094099;28;20068;-73
2023/09/14 11:20:46;;;;;;;0.52;0.10;;;25.70;72.80;;;;;;5057866;28;20441;-72
2023/09/14 11:23:12;;;;;;;0.20;0.00;;;25.10;71.30;;;;;;5057505;28;20047;-72
2023/09/14 11:25:42;;;;;;;0.20;0.00;;;24.60;65.50;;;;;;5087364;28;20044;-73
2023/09/14 11:28:18;;;;;;;0.20;0.13;;;24.50;68.60;;;;;;5053906;28;20049;-73
2023/09/14 11:30:46;;;;;;;0.10;0.00;;;25.00;72.10;;;;;;5098274;28;20044;-73
2023/09/14 11:33:13;;;;;;;0.32;0.00;;;25.70;71.10;;;;;;5063131;28;20059;-73
2023/09/14 11:35:51;;;;;;;0.00;0.00;;;26.00;70.00;;;;;;5056132;28;20054;-73
2023/09/14 11:38:19;;;;;;;0.32;0.10;;;25.50;67.60;;;;;;5060353;28;20047;-73
2023/09/14 11:40:46;;;;;;;0.40;0.25;;;24.80;68.40;;;;;;5062938;28;20044;-73
2023/09/14 11:43:34;;;;;;;0.10;0.00;;;24.90;70.30;;;;;;5056102;28;20041;-73
2023/09/14 11:46:01;;;;;;;0.45;0.10;;;25.60;68.40;;;;;;5061012;28;20102;-73
2023/09/14 11:48:29;;;;;;;0.55;0.00;;;26.30;64.80;;;;;;5059941;28;20133;-73
2023/09/14 11:51:00;;;;;;;1.33;0.20;;;26.70;65.90;;;;;;5060886;28;20044;-73
2023/09/14 11:53:27;;;;;;;0.10;0.03;;;26.90;63.20;;;;;;5059331;28;20112;-71
2023/09/14 11:55:53;;;;;;;0.22;0.03;;;26.80;64.40;;;;;;5076542;28;20048;-72
2023/09/14 11:58:23;;;;;;;0.10;0.00;;;26.90;65.10;;;;;;5059549;28;20044;-72
2023/09/14 12:00:50;;;;;;;0.88;0.20;;;27.10;61.50;;;;;;5045743;28;20121;-72
2023/09/14 12:03:16;;;;;;;0.60;0.15;;;27.00;62.60;;;;;;5057450;28;20048;-72
2023/09/14 12:05:42;;;;;;;0.00;0.00;;;26.30;63.10;;;;;;5056321;28;20041;-72
2023/09/14 12:08:13;;;;;;;0.55;0.13;;;25.70;61.60;;;;;;5089841;28;20044;-72
2023/09/14 12:10:39;;;;;;;0.30;0.00;;;26.00;63.10;;;;;;5056293;28;20112;-72
2023/09/14 12:13:15;;;;;;;0.17;0.13;;;26.50;59.50;;;;;;5056629;28;20580;-72
2023/09/14 12:15:43;;;;;;;0.28;0.05;;;27.00;60.70;;;;;;5060292;28;20123;-72
2023/09/14 12:18:10;;;;;;;0.57;0.38;;;27.50;63.10;;;;;;5055573;28;20107;-71
2023/09/14 12:20:39;;;;;;;0.35;0.10;;;27.90;59.10;;;;;;5058841;28;20091;-72
2023/09/14 12:23:06;;;;;;;0.25;0.15;;;28.20;61.40;;;;;;5060402;28;20090;-72
2023/09/14 12:25:32;;;;;;;0.82;0.10;;;28.50;59.10;;;;;;5057780;28;20420;-72
2023/09/14 12:28:04;;;;;;;0.03;0.00;;;28.50;56.80;;;;;;5056377;28;20051;-72
2023/09/14 12:30:30;;;;;;;0.28;0.10;;;28.10;55.50;;;;;;5054861;28;20070;-71
2023/09/14 12:32:56;;;;;;;0.20;0.10;;;26.80;56.30;;;;;;5057322;28;20037;-71
2023/09/14 12:35:23;;;;;;;2.15;0.15;;;25.50;59.20;;;;;;5082468;28;20044;-71
2023/09/14 12:37:51;;;;;;;0.15;0.10;;;24.60;60.60;;;;;;5058563;28;20093;-71
2023/09/14 12:40:17;;;;;;;0.40;0.10;;;24.90;61.20;;;;;;5051502;28;20043;-71
2023/09/14 12:42:43;;;;;;;0.30;0.10;;;25.60;58.40;;;;;;5053826;28;20045;-71
2023/09/14 12:45:17;;;;;;;0.75;0.20;;;26.40;60.70;;;;;;5057334;28;20105;-71
2023/09/14 12:47:45;;;;;;;0.20;0.10;;;26.90;59.20;;;;;;5057539;28;20033;-71
2023/09/14 12:50:18;;;;;;;0.30;0.00;;;27.30;58.10;;;;;;5060637;28;20044;-71
2023/09/14 12:52:45;;;;;;;0.45;0.10;;;27.60;58.90;;;;;;5056756;28;20033;-71
2023/09/14 12:55:18;;;;;;;0.10;0.00;;;27.90;56.10;;;;;;5089034;28;20049;-71